sensor_id;sensor_type;location;lat;lon;timestamp;pressure;altitude;pressure_sealevel;temperature;humidity
73306;BME280;61530;51.158;0.880;2022-11-25T00:00:20;1002.3;;;9.1875;36.1816
73306;BME280;61530;51.158;0.880;2022-11-25T00:01:25;1002.33;;;9.125;36.0272
73306;BME280;61530;51.158;0.880;2022-11-25T00:02:27;1002.38;;;9.1875;35.8387
73306;BME280;61530;51.158;0.880;2022-11-25T00:03:31;1002.39;;;9.1875;35.9361
73306;BME280;61530;51.158;0.880;2022-11-25T00:04:35;1002.38;;;9.1875;35.9182
73306;BME280;61530;51.158;0.880;2022-11-25T00:05:39;1002.34;;;9.1875;35.0863
73306;BME280;61530;51.158;0.880;2022-11-25T00:06:43;1002.38;;;9.1875;36.0565
73306;BME280;61530;51.158;0.880;2022-11-25T00:07:47;1002.39;;;9.25;35.5592
73306;BME280;61530;51.158;0.880;2022-11-25T00:08:54;1002.4;;;9.1875;35.6229
73306;BME280;61530;51.158;0.880;2022-11-25T00:09:55;1002.39;;;9.25;35.3319
73306;BME280;61530;51.158;0.880;2022-11-25T00:11:00;1002.4;;;9.25;34.8508
73306;BME280;61530;51.158;0.880;2022-11-25T00:12:03;1002.37;;;9.25;35.5395
73306;BME280;61530;51.158;0.880;2022-11-25T00:13:07;1002.34;;;9.25;34.7009
73306;BME280;61530;51.158;0.880;2022-11-25T00:14:13;1002.35;;;9.25;34.896
73306;BME280;61530;51.158;0.880;2022-11-25T00:15:15;1002.35;;;9.25;34.1634
73306;BME280;61530;51.158;0.880;2022-11-25T00:16:21;1002.34;;;9.3125;34.876
73306;BME280;61530;51.158;0.880;2022-11-25T00:17:23;1002.38;;;9.25;34.8687
73306;BME280;61530;51.158;0.880;2022-11-25T00:18:27;1002.4;;;9.25;34.2129
73306;BME280;61530;51.158;0.880;2022-11-25T00:19:31;1002.42;;;9.25;33.9675
73306;BME280;61530;51.158;0.880;2022-11-25T00:20:36;1002.48;;;9.25;33.9019
73306;BME280;61530;51.158;0.880;2022-11-25T00:21:39;1002.48;;;9.25;33.9198
73306;BME280;61530;51.158;0.880;2022-11-25T00:22:43;1002.5;;;9.25;33.6185
73306;BME280;61530;51.158;0.880;2022-11-25T00:23:50;1002.48;;;9.1875;33.6571
73306;BME280;61530;51.158;0.880;2022-11-25T00:24:51;1002.47;;;9.1875;33.9501
73306;BME280;61530;51.158;0.880;2022-11-25T00:25:55;1002.51;;;9.1875;34.0482
73306;BME280;61530;51.158;0.880;2022-11-25T00:26:59;1002.51;;;9.1875;34.1677
73306;BME280;61530;51.158;0.880;2022-11-25T00:28:03;1002.54;;;9.1875;34.3652
73306;BME280;61530;51.158;0.880;2022-11-25T00:29:10;1002.57;;;9.1875;34.1328
73306;BME280;61530;51.158;0.880;2022-11-25T00:30:12;1002.58;;;9.125;35.0002
73306;BME280;61530;51.158;0.880;2022-11-25T00:31:20;1002.6;;;9.1875;34.81
73306;BME280;61530;51.158;0.880;2022-11-25T00:32:20;1002.6;;;9.1875;34.9886
73306;BME280;61530;51.158;0.880;2022-11-25T00:33:23;1002.61;;;9.25;34.8905
73306;BME280;61530;51.158;0.880;2022-11-25T00:34:27;1002.63;;;9.1875;35.0008
73306;BME280;61530;51.158;0.880;2022-11-25T00:35:33;1002.66;;;9.1875;34.2962
73306;BME280;61530;51.158;0.880;2022-11-25T00:36:36;1002.66;;;9.25;34.5916
73306;BME280;61530;51.158;0.880;2022-11-25T00:37:39;1002.72;;;9.1875;35.0524
73306;BME280;61530;51.158;0.880;2022-11-25T00:38:44;1002.71;;;9.1875;35.3394
73306;BME280;61530;51.158;0.880;2022-11-25T00:39:47;1002.71;;;9.1875;35.1556
73306;BME280;61530;51.158;0.880;2022-11-25T00:40:52;1002.72;;;9.125;35.1884
73306;BME280;61530;51.158;0.880;2022-11-25T00:41:55;1002.75;;;9.125;34.6611
73306;BME280;61530;51.158;0.880;2022-11-25T00:42:59;1002.75;;;9.25;35.2125
73306;BME280;61530;51.158;0.880;2022-11-25T00:44:03;1002.77;;;9.1875;35.1427
73306;BME280;61530;51.158;0.880;2022-11-25T00:45:08;1002.8;;;9.125;34.8442
73306;BME280;61530;51.158;0.880;2022-11-25T00:46:11;1002.82;;;9.1875;35.1293
73306;BME280;61530;51.158;0.880;2022-11-25T00:47:16;1002.84;;;9.25;35.0604
73306;BME280;61530;51.158;0.880;2022-11-25T00:48:19;1002.85;;;9.1875;36.0755
73306;BME280;61530;51.158;0.880;2022-11-25T00:49:23;1002.86;;;9.1875;36.1679
73306;BME280;61530;51.158;0.880;2022-11-25T00:50:27;1002.8;;;9.1875;35.4543
73306;BME280;61530;51.158;0.880;2022-11-25T00:51:31;1002.82;;;9.1875;35.6863
73306;BME280;61530;51.158;0.880;2022-11-25T00:52:35;1002.81;;;9.1875;36.6126
73306;BME280;61530;51.158;0.880;2022-11-25T00:53:39;1002.76;;;9.1875;36.8104
73306;BME280;61530;51.158;0.880;2022-11-25T00:54:43;1002.77;;;9.1875;36.6088
73306;BME280;61530;51.158;0.880;2022-11-25T00:55:47;1002.7;;;9.125;35.8719
73306;BME280;61530;51.158;0.880;2022-11-25T00:56:51;1002.71;;;9.0625;36.3201
73306;BME280;61530;51.158;0.880;2022-11-25T00:57:55;1002.69;;;9.125;36.384
73306;BME280;61530;51.158;0.880;2022-11-25T00:58:59;1002.73;;;9.0625;36.2567
73306;BME280;61530;51.158;0.880;2022-11-25T01:00:05;1002.74;;;9.1875;36.4543
73306;BME280;61530;51.158;0.880;2022-11-25T01:01:07;1002.75;;;9.125;35.8478
73306;BME280;61530;51.158;0.880;2022-11-25T01:02:13;1002.75;;;9.0625;35.7483
73306;BME280;61530;51.158;0.880;2022-11-25T01:03:15;1002.79;;;9.0625;36.0671
73306;BME280;61530;51.158;0.880;2022-11-25T01:04:19;1002.78;;;9.125;36.1104
73306;BME280;61530;51.158;0.880;2022-11-25T01:05:23;1002.8;;;9.125;36.1294
73306;BME280;61530;51.158;0.880;2022-11-25T01:06:27;1002.82;;;9.0625;35.0782
73306;BME280;61530;51.158;0.880;2022-11-25T01:07:31;1002.83;;;9.1875;35.0286
73306;BME280;61530;51.158;0.880;2022-11-25T01:08:37;1002.83;;;9.125;35.0388
73306;BME280;61530;51.158;0.880;2022-11-25T01:09:39;1002.85;;;9.125;34.3776
73306;BME280;61530;51.158;0.880;2022-11-25T01:10:43;1002.87;;;9.125;34.3309
73306;BME280;61530;51.158;0.880;2022-11-25T01:11:49;1002.88;;;9.125;34.8597
73306;BME280;61530;51.158;0.880;2022-11-25T01:12:51;1002.9;;;9.0625;34.8294
73306;BME280;61530;51.158;0.880;2022-11-25T01:13:55;1002.95;;;9.0625;34.6986
73306;BME280;61530;51.158;0.880;2022-11-25T01:14:59;1002.93;;;9.125;34.5735
73306;BME280;61530;51.158;0.880;2022-11-25T01:16:04;1002.96;;;9.125;35.1836
73306;BME280;61530;51.158;0.880;2022-11-25T01:17:07;1002.99;;;9.125;34.4387
73306;BME280;61530;51.158;0.880;2022-11-25T01:18:11;1003.0;;;9.125;34.4887
73306;BME280;61530;51.158;0.880;2022-11-25T01:19:17;1002.99;;;9.125;34.6156
73306;BME280;61530;51.158;0.880;2022-11-25T01:20:19;1003.01;;;9.125;34.2176
73306;BME280;61530;51.158;0.880;2022-11-25T01:21:25;1003.02;;;9.1875;34.1441
73306;BME280;61530;51.158;0.880;2022-11-25T01:22:27;1003.07;;;9.125;34.2019
73306;BME280;61530;51.158;0.880;2022-11-25T01:23:31;1003.1;;;9.125;34.4331
73306;BME280;61530;51.158;0.880;2022-11-25T01:24:35;1003.12;;;9.125;34.8537
73306;BME280;61530;51.158;0.880;2022-11-25T01:25:39;1003.14;;;9.125;34.1599
73306;BME280;61530;51.158;0.880;2022-11-25T01:26:43;1003.12;;;9.125;34.1616
73306;BME280;61530;51.158;0.880;2022-11-25T01:27:47;1003.13;;;9.1875;34.5206
73306;BME280;61530;51.158;0.880;2022-11-25T01:28:54;1003.15;;;9.0625;35.2755
73306;BME280;61530;51.158;0.880;2022-11-25T01:29:55;1003.14;;;9.125;35.2755
73306;BME280;61530;51.158;0.880;2022-11-25T01:31:00;1003.17;;;9.0625;34.813
73306;BME280;61530;51.158;0.880;2022-11-25T01:32:04;1003.18;;;9.0625;34.6447
73306;BME280;61530;51.158;0.880;2022-11-25T01:33:07;1003.18;;;9.0;33.8479
73306;BME280;61530;51.158;0.880;2022-11-25T01:34:13;1003.21;;;9.0625;34.5593
73306;BME280;61530;51.158;0.880;2022-11-25T01:35:15;1003.21;;;9.125;34.6793
73306;BME280;61530;51.158;0.880;2022-11-25T01:36:19;1003.21;;;8.9375;33.7962
73306;BME280;61530;51.158;0.880;2022-11-25T01:37:23;1003.21;;;9.0625;33.471
73306;BME280;61530;51.158;0.880;2022-11-25T01:38:27;1003.25;;;9.0625;33.7375
73306;BME280;61530;51.158;0.880;2022-11-25T01:39:31;1003.25;;;9.0625;33.5504
73306;BME280;61530;51.158;0.880;2022-11-25T01:40:35;1003.27;;;9.0;33.5601
73306;BME280;61530;51.158;0.880;2022-11-25T01:41:39;1003.28;;;9.0;32.9413
73306;BME280;61530;51.158;0.880;2022-11-25T01:42:45;1003.28;;;9.0;34.0507
73306;BME280;61530;51.158;0.880;2022-11-25T01:44:21;1003.33;;;8.9375;33.7059
73306;BME280;61530;51.158;0.880;2022-11-25T01:45:31;1003.33;;;8.9375;33.3737
73306;BME280;61530;51.158;0.880;2022-11-25T01:45:58;1003.34;;;9.0;33.9555
73306;BME280;61530;51.158;0.880;2022-11-25T01:47:02;1003.34;;;9.0;33.6003
73306;BME280;61530;51.158;0.880;2022-11-25T01:48:11;1003.4;;;9.0;34.6908
73306;BME280;61530;51.158;0.880;2022-11-25T01:49:11;1003.4;;;9.0;33.5871
73306;BME280;61530;51.158;0.880;2022-11-25T01:50:12;1003.41;;;9.0625;33.3756
73306;BME280;61530;51.158;0.880;2022-11-25T01:51:23;1003.39;;;9.0625;33.3673
73306;BME280;61530;51.158;0.880;2022-11-25T01:52:22;1003.37;;;9.0;33.7528
73306;BME280;61530;51.158;0.880;2022-11-25T01:53:23;1003.39;;;9.0;33.3764
73306;BME280;61530;51.158;0.880;2022-11-25T01:54:32;1003.38;;;9.0;33.4731
73306;BME280;61530;51.158;0.880;2022-11-25T01:55:32;1003.39;;;9.0625;33.4966
73306;BME280;61530;51.158;0.880;2022-11-25T01:56:41;1003.38;;;9.0;32.6832
73306;BME280;61530;51.158;0.880;2022-11-25T01:57:43;1003.37;;;9.0;33.6897
73306;BME280;61530;51.158;0.880;2022-11-25T01:58:45;1003.4;;;8.9375;33.5617
73306;BME280;61530;51.158;0.880;2022-11-25T01:59:50;1003.4;;;8.9375;33.4893
73306;BME280;61530;51.158;0.880;2022-11-25T02:00:51;1003.41;;;9.0625;33.8717
73306;BME280;61530;51.158;0.880;2022-11-25T02:01:56;1003.39;;;8.9375;32.8548
73306;BME280;61530;51.158;0.880;2022-11-25T02:03:00;1003.41;;;9.0;34.1403
73306;BME280;61530;51.158;0.880;2022-11-25T02:04:05;1003.41;;;8.9375;34.4805
73306;BME280;61530;51.158;0.880;2022-11-25T02:05:11;1003.43;;;8.9375;34.3663
73306;BME280;61530;51.158;0.880;2022-11-25T02:06:14;1003.44;;;9.0;34.3584
73306;BME280;61530;51.158;0.880;2022-11-25T02:07:19;1003.49;;;8.9375;34.7014
73306;BME280;61530;51.158;0.880;2022-11-25T02:08:22;1003.5;;;8.875;34.3217
73306;BME280;61530;51.158;0.880;2022-11-25T02:09:24;1003.52;;;8.9375;33.8728
73306;BME280;61530;51.158;0.880;2022-11-25T02:10:29;1003.49;;;8.9375;35.2196
73306;BME280;61530;51.158;0.880;2022-11-25T02:11:32;1003.48;;;8.9375;33.7459
73306;BME280;61530;51.158;0.880;2022-11-25T02:12:37;1003.53;;;8.875;33.9918
73306;BME280;61530;51.158;0.880;2022-11-25T02:13:40;1003.53;;;8.9375;34.4631
73306;BME280;61530;51.158;0.880;2022-11-25T02:14:44;1003.54;;;8.875;34.8717
73306;BME280;61530;51.158;0.880;2022-11-25T02:15:47;1003.58;;;8.8125;34.6933
73306;BME280;61530;51.158;0.880;2022-11-25T02:16:51;1003.59;;;8.875;34.8296
73306;BME280;61530;51.158;0.880;2022-11-25T02:17:55;1003.59;;;8.875;34.3355
73306;BME280;61530;51.158;0.880;2022-11-25T02:19:00;1003.62;;;8.9375;33.7874
73306;BME280;61530;51.158;0.880;2022-11-25T02:20:07;1003.64;;;8.8125;34.4862
73306;BME280;61530;51.158;0.880;2022-11-25T02:21:07;1003.62;;;8.9375;34.712
73306;BME280;61530;51.158;0.880;2022-11-25T02:22:19;1003.68;;;8.9375;34.9521
73306;BME280;61530;51.158;0.880;2022-11-25T02:23:21;1003.68;;;8.875;34.9694
73306;BME280;61530;51.158;0.880;2022-11-25T02:24:29;1003.65;;;8.875;33.8787
73306;BME280;61530;51.158;0.880;2022-11-25T02:25:25;1003.7;;;8.875;34.8573
73306;BME280;61530;51.158;0.880;2022-11-25T02:26:27;1003.72;;;8.9375;35.1661
73306;BME280;61530;51.158;0.880;2022-11-25T02:27:31;1003.78;;;8.875;34.5048
73306;BME280;61530;51.158;0.880;2022-11-25T02:28:35;1003.76;;;8.875;35.0284
73306;BME280;61530;51.158;0.880;2022-11-25T02:29:40;1003.77;;;8.875;34.8941
73306;BME280;61530;51.158;0.880;2022-11-25T02:30:44;1003.8;;;8.8125;34.8901
73306;BME280;61530;51.158;0.880;2022-11-25T02:31:48;1003.79;;;8.8125;34.4878
73306;BME280;61530;51.158;0.880;2022-11-25T02:32:51;1003.85;;;8.9375;34.2492
73306;BME280;61530;51.158;0.880;2022-11-25T02:33:56;1003.84;;;8.875;34.4793
73306;BME280;61530;51.158;0.880;2022-11-25T02:34:59;1003.85;;;8.875;34.3761
73306;BME280;61530;51.158;0.880;2022-11-25T02:36:06;1003.87;;;8.8125;34.4754
73306;BME280;61530;51.158;0.880;2022-11-25T02:37:07;1003.88;;;8.875;35.2627
73306;BME280;61530;51.158;0.880;2022-11-25T02:38:15;1003.87;;;8.875;35.1705
73306;BME280;61530;51.158;0.880;2022-11-25T02:39:16;1003.87;;;8.9375;34.8267
73306;BME280;61530;51.158;0.880;2022-11-25T02:40:20;1003.88;;;8.875;35.4058
73306;BME280;61530;51.158;0.880;2022-11-25T02:41:28;1003.87;;;8.875;35.578
73306;BME280;61530;51.158;0.880;2022-11-25T02:42:29;1003.86;;;8.8125;35.5676
73306;BME280;61530;51.158;0.880;2022-11-25T02:43:33;1003.85;;;8.9375;35.9241
73306;BME280;61530;51.158;0.880;2022-11-25T02:44:35;1003.85;;;8.875;35.2392
73306;BME280;61530;51.158;0.880;2022-11-25T02:45:46;1003.86;;;8.875;35.2741
73306;BME280;61530;51.158;0.880;2022-11-25T02:46:43;1003.91;;;8.875;35.1466
73306;BME280;61530;51.158;0.880;2022-11-25T02:47:47;1003.93;;;8.875;35.4338
73306;BME280;61530;51.158;0.880;2022-11-25T02:48:53;1003.95;;;8.8125;34.9794
73306;BME280;61530;51.158;0.880;2022-11-25T02:49:55;1003.96;;;8.875;35.4048
73306;BME280;61530;51.158;0.880;2022-11-25T02:50:59;1003.97;;;8.875;35.0964
73306;BME280;61530;51.158;0.880;2022-11-25T02:52:03;1003.98;;;8.9375;35.6655
73306;BME280;61530;51.158;0.880;2022-11-25T02:53:07;1003.99;;;8.9375;35.5225
73306;BME280;61530;51.158;0.880;2022-11-25T02:54:12;1004.01;;;8.875;35.1022
73306;BME280;61530;51.158;0.880;2022-11-25T02:55:15;1004.01;;;8.9375;35.2917
73306;BME280;61530;51.158;0.880;2022-11-25T02:56:23;1004.02;;;8.875;34.8106
73306;BME280;61530;51.158;0.880;2022-11-25T02:57:23;1004.0;;;8.875;35.4254
73306;BME280;61530;51.158;0.880;2022-11-25T02:58:27;1004.02;;;8.8125;35.4531
73306;BME280;61530;51.158;0.880;2022-11-25T02:59:31;1003.99;;;8.8125;35.8159
73306;BME280;61530;51.158;0.880;2022-11-25T03:00:35;1004.0;;;8.875;35.7697
73306;BME280;61530;51.158;0.880;2022-11-25T03:01:39;1004.02;;;8.875;35.4413
73306;BME280;61530;51.158;0.880;2022-11-25T03:02:43;1004.05;;;8.875;35.1017
73306;BME280;61530;51.158;0.880;2022-11-25T03:03:47;1004.06;;;8.8125;35.4858
73306;BME280;61530;51.158;0.880;2022-11-25T03:04:51;1004.08;;;8.75;34.6869
73306;BME280;61530;51.158;0.880;2022-11-25T03:05:55;1004.11;;;8.8125;34.1927
73306;BME280;61530;51.158;0.880;2022-11-25T03:06:59;1004.13;;;8.8125;34.7853
73306;BME280;61530;51.158;0.880;2022-11-25T03:08:04;1004.13;;;8.875;34.802
73306;BME280;61530;51.158;0.880;2022-11-25T03:09:07;1004.15;;;8.9375;34.5722
73306;BME280;61530;51.158;0.880;2022-11-25T03:10:11;1004.19;;;8.875;35.1464
73306;BME280;61530;51.158;0.880;2022-11-25T03:11:15;1004.19;;;8.875;34.7076
73306;BME280;61530;51.158;0.880;2022-11-25T03:12:19;1004.21;;;8.875;34.7669
73306;BME280;61530;51.158;0.880;2022-11-25T03:13:23;1004.21;;;8.875;34.4578
73306;BME280;61530;51.158;0.880;2022-11-25T03:14:27;1004.25;;;8.875;34.8031
73306;BME280;61530;51.158;0.880;2022-11-25T03:15:31;1004.24;;;8.875;34.1202
73306;BME280;61530;51.158;0.880;2022-11-25T03:16:35;1004.29;;;8.8125;34.9207
73306;BME280;61530;51.158;0.880;2022-11-25T03:17:39;1004.29;;;8.8125;33.3635
73306;BME280;61530;51.158;0.880;2022-11-25T03:18:43;1004.32;;;8.875;34.6534
73306;BME280;61530;51.158;0.880;2022-11-25T03:19:47;1004.33;;;8.8125;35.4815
73306;BME280;61530;51.158;0.880;2022-11-25T03:20:52;1004.34;;;8.75;34.992
73306;BME280;61530;51.158;0.880;2022-11-25T03:21:55;1004.36;;;8.8125;35.3268
73306;BME280;61530;51.158;0.880;2022-11-25T03:22:59;1004.34;;;8.8125;34.9762
73306;BME280;61530;51.158;0.880;2022-11-25T03:24:03;1004.34;;;8.8125;34.9075
73306;BME280;61530;51.158;0.880;2022-11-25T03:25:08;1004.37;;;8.75;35.7841
73306;BME280;61530;51.158;0.880;2022-11-25T03:26:11;1004.39;;;8.75;35.3715
73306;BME280;61530;51.158;0.880;2022-11-25T03:27:15;1004.4;;;8.8125;34.542
73306;BME280;61530;51.158;0.880;2022-11-25T03:28:19;1004.42;;;8.75;35.5992
73306;BME280;61530;51.158;0.880;2022-11-25T03:29:23;1004.45;;;8.75;35.4535
73306;BME280;61530;51.158;0.880;2022-11-25T03:30:28;1004.44;;;8.75;35.046
73306;BME280;61530;51.158;0.880;2022-11-25T03:31:31;1004.44;;;8.75;34.679
73306;BME280;61530;51.158;0.880;2022-11-25T03:32:35;1004.42;;;8.6875;35.076
73306;BME280;61530;51.158;0.880;2022-11-25T03:33:39;1004.5;;;8.8125;35.0176
73306;BME280;61530;51.158;0.880;2022-11-25T03:34:43;1004.48;;;8.75;34.552
73306;BME280;61530;51.158;0.880;2022-11-25T03:35:47;1004.46;;;8.8125;34.7539
73306;BME280;61530;51.158;0.880;2022-11-25T03:36:51;1004.52;;;8.8125;34.5993
73306;BME280;61530;51.158;0.880;2022-11-25T03:37:55;1004.52;;;8.8125;35.2658
73306;BME280;61530;51.158;0.880;2022-11-25T03:38:59;1004.56;;;8.8125;33.9416
73306;BME280;61530;51.158;0.880;2022-11-25T03:40:05;1004.56;;;8.75;34.7469
73306;BME280;61530;51.158;0.880;2022-11-25T03:41:07;1004.59;;;8.6875;33.929
73306;BME280;61530;51.158;0.880;2022-11-25T03:42:11;1004.62;;;8.6875;34.9869
73306;BME280;61530;51.158;0.880;2022-11-25T03:43:15;1004.62;;;8.6875;34.6097
73306;BME280;61530;51.158;0.880;2022-11-25T03:44:19;1004.61;;;8.8125;35.208
73306;BME280;61530;51.158;0.880;2022-11-25T03:45:23;1004.64;;;8.6875;34.7034
73306;BME280;61530;51.158;0.880;2022-11-25T03:46:27;1004.65;;;8.75;34.8127
73306;BME280;61530;51.158;0.880;2022-11-25T03:47:31;1004.65;;;8.75;35.216
73306;BME280;61530;51.158;0.880;2022-11-25T03:48:35;1004.66;;;8.75;34.0747
73306;BME280;61530;51.158;0.880;2022-11-25T03:49:39;1004.69;;;8.75;34.6733
73306;BME280;61530;51.158;0.880;2022-11-25T03:50:43;1004.72;;;8.6875;34.3821
73306;BME280;61530;51.158;0.880;2022-11-25T03:51:47;1004.75;;;8.75;35.3463
73306;BME280;61530;51.158;0.880;2022-11-25T03:52:51;1004.77;;;8.75;35.1646
73306;BME280;61530;51.158;0.880;2022-11-25T03:53:55;1004.77;;;8.75;35.526
73306;BME280;61530;51.158;0.880;2022-11-25T03:54:59;1004.79;;;8.75;35.6641
73306;BME280;61530;51.158;0.880;2022-11-25T03:56:03;1004.81;;;8.75;35.1758
73306;BME280;61530;51.158;0.880;2022-11-25T03:57:08;1004.8;;;8.6875;36.1043
73306;BME280;61530;51.158;0.880;2022-11-25T03:58:11;1004.81;;;8.625;35.8168
73306;BME280;61530;51.158;0.880;2022-11-25T03:59:15;1004.86;;;8.75;35.1322
73306;BME280;61530;51.158;0.880;2022-11-25T04:00:19;1004.8;;;8.6875;35.5067
73306;BME280;61530;51.158;0.880;2022-11-25T04:01:23;1004.82;;;8.6875;35.2097
73306;BME280;61530;51.158;0.880;2022-11-25T04:02:27;1004.83;;;8.6875;35.692
73306;BME280;61530;51.158;0.880;2022-11-25T04:03:31;1004.84;;;8.6875;34.7166
73306;BME280;61530;51.158;0.880;2022-11-25T04:04:35;1004.87;;;8.6875;34.8597
73306;BME280;61530;51.158;0.880;2022-11-25T04:05:40;1004.86;;;8.75;35.3798
73306;BME280;61530;51.158;0.880;2022-11-25T04:06:43;1004.87;;;8.75;35.3175
73306;BME280;61530;51.158;0.880;2022-11-25T04:07:47;1004.88;;;8.6875;34.9799
73306;BME280;61530;51.158;0.880;2022-11-25T04:08:51;1004.93;;;8.75;35.9026
73306;BME280;61530;51.158;0.880;2022-11-25T04:09:55;1004.97;;;8.6875;34.9663
73306;BME280;61530;51.158;0.880;2022-11-25T04:10:59;1005.01;;;8.6875;35.2501
73306;BME280;61530;51.158;0.880;2022-11-25T04:12:04;1005.03;;;8.75;35.9775
73306;BME280;61530;51.158;0.880;2022-11-25T04:13:07;1005.04;;;8.6875;35.1348
73306;BME280;61530;51.158;0.880;2022-11-25T04:14:11;1005.07;;;8.6875;35.1478
73306;BME280;61530;51.158;0.880;2022-11-25T04:15:16;1005.11;;;8.6875;35.8053
73306;BME280;61530;51.158;0.880;2022-11-25T04:16:24;1005.17;;;8.6875;34.8537
73306;BME280;61530;51.158;0.880;2022-11-25T04:17:23;1005.19;;;8.75;34.951
73306;BME280;61530;51.158;0.880;2022-11-25T04:18:27;1005.22;;;8.6875;35.7658
73306;BME280;61530;51.158;0.880;2022-11-25T04:19:31;1005.26;;;8.75;36.3508
73306;BME280;61530;51.158;0.880;2022-11-25T04:20:35;1005.29;;;8.625;35.0999
73306;BME280;61530;51.158;0.880;2022-11-25T04:21:39;1005.31;;;8.5625;35.8446
73306;BME280;61530;51.158;0.880;2022-11-25T04:22:43;1005.31;;;8.6875;34.9655
73306;BME280;61530;51.158;0.880;2022-11-25T04:23:47;1005.33;;;8.625;35.8684
73306;BME280;61530;51.158;0.880;2022-11-25T04:24:51;1005.33;;;8.625;34.7145
73306;BME280;61530;51.158;0.880;2022-11-25T04:25:55;1005.31;;;8.625;35.9211
73306;BME280;61530;51.158;0.880;2022-11-25T04:26:59;1005.34;;;8.625;36.1081
73306;BME280;61530;51.158;0.880;2022-11-25T04:28:04;1005.36;;;8.5625;34.776
73306;BME280;61530;51.158;0.880;2022-11-25T04:29:07;1005.38;;;8.625;34.6101
73306;BME280;61530;51.158;0.880;2022-11-25T04:30:11;1005.42;;;8.625;35.5001
73306;BME280;61530;51.158;0.880;2022-11-25T04:31:15;1005.42;;;8.625;35.3327
73306;BME280;61530;51.158;0.880;2022-11-25T04:32:19;1005.45;;;8.5625;35.1091
73306;BME280;61530;51.158;0.880;2022-11-25T04:33:23;1005.45;;;8.625;35.1855
73306;BME280;61530;51.158;0.880;2022-11-25T04:34:27;1005.5;;;8.6875;34.7842
73306;BME280;61530;51.158;0.880;2022-11-25T04:35:32;1005.47;;;8.625;34.2225
73306;BME280;61530;51.158;0.880;2022-11-25T04:36:35;1005.49;;;8.625;34.6232
73306;BME280;61530;51.158;0.880;2022-11-25T04:37:39;1005.49;;;8.5625;35.2356
73306;BME280;61530;51.158;0.880;2022-11-25T04:38:43;1005.52;;;8.625;34.8806
73306;BME280;61530;51.158;0.880;2022-11-25T04:39:47;1005.52;;;8.5625;33.9964
73306;BME280;61530;51.158;0.880;2022-11-25T04:40:51;1005.49;;;8.5625;34.2765
73306;BME280;61530;51.158;0.880;2022-11-25T04:41:55;1005.49;;;8.5;35.1018
73306;BME280;61530;51.158;0.880;2022-11-25T04:42:59;1005.47;;;8.625;36.4558
73306;BME280;61530;51.158;0.880;2022-11-25T04:44:03;1005.47;;;8.625;35.0096
73306;BME280;61530;51.158;0.880;2022-11-25T04:45:09;1005.49;;;8.5;35.3236
73306;BME280;61530;51.158;0.880;2022-11-25T04:46:14;1005.52;;;8.5625;35.0536
73306;BME280;61530;51.158;0.880;2022-11-25T04:47:15;1005.5;;;8.625;35.2956
73306;BME280;61530;51.158;0.880;2022-11-25T04:48:19;1005.53;;;8.625;35.6964
73306;BME280;61530;51.158;0.880;2022-11-25T04:49:23;1005.52;;;8.5625;34.9779
73306;BME280;61530;51.158;0.880;2022-11-25T04:50:27;1005.54;;;8.5625;34.7478
73306;BME280;61530;51.158;0.880;2022-11-25T04:51:31;1005.59;;;8.625;35.0349
73306;BME280;61530;51.158;0.880;2022-11-25T04:52:35;1005.57;;;8.5625;34.6078
73306;BME280;61530;51.158;0.880;2022-11-25T04:53:39;1005.62;;;8.5625;35.3288
73306;BME280;61530;51.158;0.880;2022-11-25T04:54:43;1005.6;;;8.5625;34.3294
73306;BME280;61530;51.158;0.880;2022-11-25T04:55:47;1005.61;;;8.625;34.5014
73306;BME280;61530;51.158;0.880;2022-11-25T04:56:51;1005.66;;;8.5625;34.2733
73306;BME280;61530;51.158;0.880;2022-11-25T04:57:55;1005.67;;;8.5625;34.5611
73306;BME280;61530;51.158;0.880;2022-11-25T04:58:59;1005.69;;;8.625;34.1485
73306;BME280;61530;51.158;0.880;2022-11-25T05:00:04;1005.72;;;8.5;35.3306
73306;BME280;61530;51.158;0.880;2022-11-25T05:01:07;1005.72;;;8.5625;34.2053
73306;BME280;61530;51.158;0.880;2022-11-25T05:02:14;1005.74;;;8.5625;34.594
73306;BME280;61530;51.158;0.880;2022-11-25T05:03:15;1005.72;;;8.5625;34.3647
73306;BME280;61530;51.158;0.880;2022-11-25T05:04:19;1005.74;;;8.5625;35.5921
73306;BME280;61530;51.158;0.880;2022-11-25T05:05:23;1005.74;;;8.5625;33.7277
73306;BME280;61530;51.158;0.880;2022-11-25T05:06:27;1005.77;;;8.5625;35.0611
73306;BME280;61530;51.158;0.880;2022-11-25T05:07:31;1005.8;;;8.5;34.9749
73306;BME280;61530;51.158;0.880;2022-11-25T05:08:35;1005.8;;;8.5625;35.0425
73306;BME280;61530;51.158;0.880;2022-11-25T05:09:39;1005.84;;;8.375;35.0195
73306;BME280;61530;51.158;0.880;2022-11-25T05:10:43;1005.83;;;8.625;35.1646
73306;BME280;61530;51.158;0.880;2022-11-25T05:11:47;1005.84;;;8.5625;34.8674
73306;BME280;61530;51.158;0.880;2022-11-25T05:12:51;1005.82;;;8.5625;34.9937
73306;BME280;61530;51.158;0.880;2022-11-25T05:13:55;1005.8;;;8.5;34.7801
73306;BME280;61530;51.158;0.880;2022-11-25T05:14:59;1005.84;;;8.5625;34.975
73306;BME280;61530;51.158;0.880;2022-11-25T05:16:04;1005.86;;;8.4375;34.396
73306;BME280;61530;51.158;0.880;2022-11-25T05:17:12;1005.86;;;8.5625;35.2624
73306;BME280;61530;51.158;0.880;2022-11-25T05:18:11;1005.86;;;8.5625;35.2507
73306;BME280;61530;51.158;0.880;2022-11-25T05:19:15;1005.89;;;8.5625;34.3446
73306;BME280;61530;51.158;0.880;2022-11-25T05:20:19;1005.93;;;8.5625;35.1425
73306;BME280;61530;51.158;0.880;2022-11-25T05:21:23;1005.96;;;8.5;34.5193
73306;BME280;61530;51.158;0.880;2022-11-25T05:22:29;1005.98;;;8.5625;34.3142
73306;BME280;61530;51.158;0.880;2022-11-25T05:23:31;1006.02;;;8.5;34.2807
73306;BME280;61530;51.158;0.880;2022-11-25T05:24:35;1006.0;;;8.5625;35.1754
73306;BME280;61530;51.158;0.880;2022-11-25T05:25:39;1006.03;;;8.5;35.1056
73306;BME280;61530;51.158;0.880;2022-11-25T05:26:43;1006.02;;;8.4375;34.9795
73306;BME280;61530;51.158;0.880;2022-11-25T05:27:47;1006.05;;;8.5;34.176
73306;BME280;61530;51.158;0.880;2022-11-25T05:28:51;1006.07;;;8.4375;34.658
73306;BME280;61530;51.158;0.880;2022-11-25T05:29:55;1006.09;;;8.4375;36.6125
73306;BME280;61530;51.158;0.880;2022-11-25T05:30:59;1006.1;;;8.5;35.8795
73306;BME280;61530;51.158;0.880;2022-11-25T05:32:04;1006.13;;;8.4375;35.8037
73306;BME280;61530;51.158;0.880;2022-11-25T05:33:07;1006.14;;;8.5;34.7889
73306;BME280;61530;51.158;0.880;2022-11-25T05:34:11;1006.18;;;8.375;36.1988